Time;durP1;ratioP1;P1;durP2;ratioP2;P2;SDS_P1;SDS_P2;PMS_P1;PMS_P2;Temp;Humidity;BMP_temperature;BMP_pressure;BME280_temperature;BME280_humidity;BME280_pressure;Samples;Min_cycle;Max_cycle;Signal;HPM_P1;HPM_P2
2023/11/24 00:01:09;;;;;;;5.40;2.60;;;;;;;7.39;100.00;98435.64;112161;1247;23613;-80
2023/11/24 00:03:58;;;;;;;7.10;2.80;;;;;;;7.44;100.00;98428.83;111613;1254;22015;-80
2023/11/24 00:06:38;;;;;;;8.20;2.30;;;;;;;7.47;100.00;98429.16;111398;1252;22007;-79
2023/11/24 00:09:27;;;;;;;5.10;2.20;;;;;;;7.47;100.00;98421.37;111176;1254;22390;-80
2023/11/24 00:12:19;;;;;;;6.90;2.30;;;;;;;7.46;100.00;98422.29;111451;1253;23759;-81
2023/11/24 00:15:02;;;;;;;5.90;2.10;;;;;;;7.46;100.00;98434.26;111573;1254;24304;-81
2023/11/24 00:18:14;;;;;;;3.40;1.50;;;;;;;7.45;100.00;98444.02;111453;1251;22068;-79
2023/11/24 00:21:24;;;;;;;6.70;1.90;;;;;;;7.45;100.00;98442.97;112295;1239;21962;-79
2023/11/24 00:24:09;;;;;;;5.10;1.90;;;;;;;7.44;100.00;98447.52;112977;1239;23681;-81
2023/11/24 00:27:03;;;;;;;4.40;2.20;;;;;;;7.47;100.00;98453.93;113173;1231;21971;-81
2023/11/24 00:30:00;;;;;;;5.70;1.80;;;;;;;7.52;100.00;98449.32;113416;1234;23003;-81
2023/11/24 00:33:02;;;;;;;5.50;2.10;;;;;;;7.52;100.00;98449.35;113237;1234;21948;-81
2023/11/24 00:35:46;;;;;;;6.50;2.20;;;;;;;7.51;100.00;98438.80;113617;1234;23569;-80
2023/11/24 00:38:30;;;;;;;4.50;1.80;;;;;;;7.51;100.00;98428.77;113348;1234;23708;-80
2023/11/24 00:41:17;;;;;;;3.70;1.70;;;;;;;7.49;100.00;98418.52;112851;1238;21955;-79
2023/11/24 00:44:17;;;;;;;5.30;2.40;;;;;;;7.46;100.00;98418.33;112913;1238;22388;-80
2023/11/24 00:46:55;;;;;;;5.00;1.90;;;;;;;7.47;100.00;98422.27;112816;1237;21977;-81
2023/11/24 00:49:34;;;;;;;5.00;1.90;;;;;;;7.44;100.00;98416.88;112699;1237;21941;-79
2023/11/24 00:52:09;;;;;;;5.20;1.80;;;;;;;7.49;100.00;98419.57;112989;1237;22256;-80
2023/11/24 00:55:03;;;;;;;7.80;2.00;;;;;;;7.45;100.00;98422.18;113140;1237;21955;-80
2023/11/24 00:57:47;;;;;;;8.30;2.30;;;;;;;7.42;100.00;98435.29;113176;1234;23007;-81
2023/11/24 01:00:32;;;;;;;6.20;2.10;;;;;;;7.41;100.00;98431.38;113247;1234;22405;-79
2023/11/24 01:03:18;;;;;;;8.60;2.60;;;;;;;7.43;100.00;98434.08;112436;1241;23679;-79
2023/11/24 01:06:00;;;;;;;6.20;2.00;;;;;;;7.42;100.00;98439.67;112928;1240;21959;-80
2023/11/24 01:09:09;;;;;;;7.50;2.70;;;;;;;7.40;100.00;98423.67;113109;1240;21960;-79
2023/11/24 01:12:14;;;;;;;8.40;2.50;;;;;;;7.37;100.00;98422.12;113015;1241;21943;-80
2023/11/24 01:15:26;;;;;;;8.00;1.90;;;;;;;7.31;100.00;98416.37;113083;1241;21927;-80
2023/11/24 01:18:16;;;;;;;6.80;2.50;;;;;;;7.31;100.00;98404.27;113072;1241;23133;-80
2023/11/24 01:21:09;;;;;;;6.50;2.40;;;;;;;7.32;100.00;98389.66;112471;1241;23039;-80
2023/11/24 01:24:02;;;;;;;5.40;2.30;;;;;;;7.35;100.00;98407.70;112634;1241;21955;-81
2023/11/24 01:26:54;;;;;;;10.10;2.60;;;;;;;7.35;100.00;98420.86;112658;1241;21972;-81
2023/11/24 01:30:03;;;;;;;6.50;2.70;;;;;;;7.33;100.00;98411.63;112649;1241;23577;-80
2023/11/24 01:32:58;;;;;;;6.40;2.30;;;;;;;7.28;100.00;98424.33;112230;1246;22131;-79
2023/11/24 01:35:40;;;;;;;7.20;2.90;;;;;;;7.26;100.00;98433.27;112243;1246;21954;-79
2023/11/24 01:38:33;;;;;;;11.00;2.90;;;;;;;7.23;100.00;98428.08;112112;1242;21964;-80
2023/11/24 01:41:22;;;;;;;7.30;2.60;;;;;;;7.22;100.00;98422.92;112660;1241;22952;-80
2023/11/24 01:44:33;;;;;;;6.80;2.30;;;;;;;7.20;100.00;98420.95;112628;1242;22476;-78
2023/11/24 01:47:46;;;;;;;10.60;3.00;;;;;;;7.18;100.00;98417.60;112707;1241;22067;-81
2023/11/24 01:50:38;;;;;;;6.30;3.20;;;;;;;7.14;100.00;98422.84;111644;1252;21989;-80
2023/11/24 01:53:19;;;;;;;5.70;1.90;;;;;;;7.16;100.00;98407.71;111066;1257;21979;-81
2023/11/24 01:56:13;;;;;;;8.70;2.60;;;;;;;7.16;100.00;98404.59;110634;1263;23001;-81
2023/11/24 01:59:02;;;;;;;6.40;2.30;;;;;;;7.13;100.00;98413.55;110669;1263;22169;-81
2023/11/24 02:01:42;;;;;;;6.70;2.60;;;;;;;7.11;100.00;98415.55;110639;1263;22058;-79
2023/11/24 02:04:29;;;;;;;8.10;2.60;;;;;;;7.09;100.00;98416.73;110644;1263;21989;-80
2023/11/24 02:07:23;;;;;;;12.50;3.00;;;;;;;7.07;100.00;98425.47;110675;1263;23726;-79
2023/11/24 02:10:00;;;;;;;7.30;2.40;;;;;;;7.02;100.00;98433.20;110905;1255;23695;-81
2023/11/24 02:12:52;;;;;;;10.00;3.50;;;;;;;6.92;100.00;98435.27;112127;1249;21951;-80
2023/11/24 02:15:46;;;;;;;7.90;2.70;;;;;;;6.82;100.00;98434.95;111912;1246;23008;-80
2023/11/24 02:18:28;;;;;;;7.40;3.00;;;;;;;6.74;100.00;98439.48;111973;1247;23639;-81
2023/11/24 02:21:11;;;;;;;6.50;2.30;;;;;;;6.69;100.00;98430.98;111960;1247;21999;-80
2023/11/24 02:24:00;;;;;;;9.30;2.90;;;;;;;6.63;100.00;98425.05;111589;1252;22046;-79
2023/11/24 02:26:34;;;;;;;9.60;3.30;;;;;;;6.58;100.00;98420.27;111594;1248;21959;-79
2023/11/24 02:29:41;;;;;;;6.20;2.80;;;;;;;6.51;100.00;98421.20;112359;1245;24380;-81
2023/11/24 02:32:37;;;;;;;6.30;2.50;;;;;;;6.46;100.00;98417.45;112242;1245;21993;-82
2023/11/24 02:35:29;;;;;;;9.40;2.20;;;;;;;6.40;100.00;98406.54;112317;1245;21926;-79
2023/11/24 02:38:02;;;;;;;;;;;;;;;6.33;100.00;98404.65;111857;1250;24372;-80
2023/11/24 02:40:48;;;;;;;9.00;2.10;;;;;;;6.16;100.00;98407.23;111393;1256;23067;-82
2023/11/24 02:43:38;;;;;;;6.30;2.30;;;;;;;6.09;100.00;98409.67;111605;1252;23029;-80
2023/11/24 02:46:16;;;;;;;5.60;2.10;;;;;;;5.88;100.00;98385.82;111701;1246;23756;-79
2023/11/24 02:49:05;;;;;;;6.00;2.40;;;;;;;5.84;100.00;98387.94;112223;1246;22901;-81
2023/11/24 02:51:50;;;;;;;6.40;2.30;;;;;;;5.90;100.00;98409.89;112022;1247;21981;-79
2023/11/24 02:54:29;;;;;;;4.80;1.90;;;;;;;5.86;100.00;98413.86;112186;1246;23626;-79
2023/11/24 02:57:22;;;;;;;7.60;2.20;;;;;;;5.81;100.00;98414.31;112768;1241;21974;-81
2023/11/24 03:00:08;;;;;;;5.60;2.10;;;;;;;5.74;100.00;98413.27;113414;1234;21942;-81
2023/11/24 03:03:09;;;;;;;5.10;1.70;;;;;;;5.70;100.00;98411.07;113024;1240;23722;-81
2023/11/24 03:05:51;;;;;;;7.90;2.10;;;;;;;5.62;100.00;98420.73;112796;1240;21989;-80
2023/11/24 03:09:00;;;;;;;6.30;1.90;;;;;;;5.55;100.00;98437.15;112997;1240;21955;-80
2023/11/24 03:12:02;;;;;;;6.60;1.70;;;;;;;5.49;100.00;98441.91;112789;1240;21977;-80
2023/11/24 03:14:48;;;;;;;7.50;2.10;;;;;;;5.45;100.00;98440.71;112834;1240;21928;-78
2023/11/24 03:17:53;;;;;;;5.10;1.70;;;;;;;5.39;100.00;98442.54;113127;1240;21942;-81
2023/11/24 03:20:37;;;;;;;7.70;2.30;;;;;;;5.36;100.00;98434.55;113034;1236;23570;-81
2023/11/24 03:23:27;;;;;;;8.80;2.40;;;;;;;5.34;100.00;98443.31;113475;1234;21952;-80
2023/11/24 03:26:10;;;;;;;4.40;1.50;;;;;;;5.31;100.00;98445.51;113331;1234;22691;-79
2023/11/24 03:28:57;;;;;;;6.30;2.10;;;;;;;5.29;100.00;98446.80;113493;1234;23663;-79
2023/11/24 03:31:37;;;;;;;4.90;1.90;;;;;;;5.17;100.00;98430.13;113402;1234;21990;-79
2023/11/24 03:34:13;;;;;;;5.40;1.80;;;;;;;5.25;100.00;98446.65;113402;1234;21952;-80
2023/11/24 03:36:47;;;;;;;5.50;1.90;;;;;;;5.21;100.00;98435.94;112979;1240;22439;-80
2023/11/24 03:42:31;;;;;;;;;;;;;;;;;;;;;
2023/11/24 03:45:09;;;;;;;4.00;1.60;;;;;;;5.09;100.00;98430.14;112791;1240;22938;-77
2023/11/24 03:47:49;;;;;;;7.70;2.10;;;;;;;5.08;100.00;98433.62;112820;1241;23708;-80
2023/11/24 03:50:22;;;;;;;6.50;2.40;;;;;;;5.11;100.00;98437.44;112793;1241;23854;-79
2023/11/24 03:53:04;;;;;;;10.60;2.20;;;;;;;5.14;100.00;98437.15;112657;1241;21942;-79
2023/11/24 03:56:09;;;;;;;7.90;2.70;;;;;;;5.13;100.00;98431.85;113220;1236;21944;-78
2023/11/24 03:59:10;;;;;;;8.20;2.80;;;;;;;5.07;100.00;98431.62;112245;1242;21947;-78
2023/11/24 04:01:55;;;;;;;7.60;2.90;;;;;;;4.94;100.00;98423.05;112307;1246;23014;-83
2023/11/24 04:04:29;;;;;;;8.90;3.30;;;;;;;4.94;100.00;98419.30;112180;1246;21967;-79
2023/11/24 04:07:21;;;;;;;15.70;4.50;;;;;;;4.89;100.00;98414.48;112188;1246;21993;-80
2023/11/24 04:10:07;;;;;;;7.00;2.40;;;;;;;4.85;100.00;98417.43;111956;1246;23027;-80
2023/11/24 04:13:09;;;;;;;6.30;2.00;;;;;;;4.81;100.00;98418.33;112212;1246;21992;-81
2023/11/24 04:16:00;;;;;;;12.30;3.30;;;;;;;4.74;100.00;98407.77;112477;1246;23558;-81
2023/11/24 04:19:13;;;;;;;11.90;3.00;;;;;;;4.75;100.00;98415.67;112242;1243;21987;-80
2023/11/24 04:21:58;;;;;;;9.10;3.40;;;;;;;4.74;100.00;98419.67;112419;1242;22820;-81
2023/11/24 04:24:40;;;;;;;9.00;3.00;;;;;;;4.72;100.00;98425.42;112340;1243;21976;-80
2023/11/24 04:27:20;;;;;;;35.20;26.70;;;;;;;4.73;100.00;98419.54;111906;1249;21963;-79
2023/11/24 04:29:59;;;;;;;10.10;4.20;;;;;;;4.72;100.00;98418.55;111803;1245;21983;-82
2023/11/24 04:33:24;;;;;;;10.40;3.60;;;;;;;4.69;100.00;98412.61;111877;1248;22524;-82
2023/11/24 04:36:18;;;;;;;9.10;3.10;;;;;;;4.65;100.00;98410.39;112146;1247;21973;-80
2023/11/24 04:39:28;;;;;;;15.90;4.40;;;;;;;4.62;100.00;98396.08;112024;1247;22033;-80
2023/11/24 04:42:29;;;;;;;11.50;3.80;;;;;;;4.62;100.00;98388.11;112025;1247;21982;-82
2023/11/24 04:45:48;;;;;;;9.90;3.80;;;;;;;4.61;100.00;98387.15;112403;1235;21971;-81
2023/11/24 04:48:37;;;;;;;13.80;3.20;;;;;;;4.60;100.00;98384.94;112747;1241;22801;-79
2023/11/24 04:51:41;;;;;;;13.40;3.70;;;;;;;4.59;100.00;98386.05;112791;1241;22019;-79
2023/11/24 04:54:45;;;;;;;10.00;3.80;;;;;;;4.57;100.00;98385.10;112450;1241;22397;-80
2023/11/24 04:57:49;;;;;;;;;;;;;;;;;;;;;
2023/11/24 05:00:38;;;;;;;21.60;4.60;;;;;;;4.59;100.00;98385.38;112370;1246;22326;-81
2023/11/24 05:03:19;;;;;;;12.00;4.50;;;;;;;4.62;100.00;98391.95;112263;1246;21998;-82
2023/11/24 05:06:10;;;;;;;12.80;3.70;;;;;;;4.65;100.00;98399.67;112523;1241;21960;-81
2023/11/24 05:09:06;;;;;;;18.00;3.90;;;;;;;4.55;100.00;98394.66;112773;1241;23027;-79
2023/11/24 05:11:59;;;;;;;13.00;4.10;;;;;;;4.56;100.00;98407.19;112634;1241;21963;-80
2023/11/24 05:17:52;;;;;;;11.90;3.80;;;;;;;4.74;100.00;98416.71;112624;1241;23089;-80
2023/11/24 05:21:19;;;;;;;18.70;4.00;;;;;;;4.80;100.00;98419.22;113048;1241;23651;-80
2023/11/24 05:23:55;;;;;;;7.30;2.90;;;;;;;4.84;100.00;98417.62;112963;1241;21988;-81
2023/11/24 05:26:33;;;;;;;8.60;3.30;;;;;;;4.88;100.00;98416.42;113168;1241;21984;-81
2023/11/24 05:29:30;;;;;;;9.90;3.10;;;;;;;4.91;100.00;98422.18;112475;1242;23590;-79
2023/11/24 05:32:11;;;;;;;11.80;3.60;;;;;;;4.89;100.00;98420.88;112772;1241;21952;-81
2023/11/24 05:34:57;;;;;;;12.00;4.20;;;;;;;4.87;100.00;98418.88;112098;1248;22782;-81
2023/11/24 05:37:54;;;;;;;12.40;4.00;;;;;;;4.82;100.00;98418.41;111939;1248;23718;-81
2023/11/24 05:40:46;;;;;;;9.00;3.80;;;;;;;4.78;100.00;98427.77;112308;1247;22012;-82
2023/11/24 05:43:31;;;;;;;12.00;4.60;;;;;;;4.77;100.00;98430.72;112010;1248;24381;-84
2023/11/24 05:46:10;;;;;;;8.00;3.80;;;;;;;4.78;100.00;98433.46;112067;1248;22003;-81
2023/11/24 05:48:49;;;;;;;10.00;4.40;;;;;;;4.76;100.00;98429.04;112477;1241;22417;-84
2023/11/24 05:51:35;;;;;;;11.10;5.20;;;;;;;4.74;100.00;98426.20;112718;1241;21989;-83
2023/11/24 05:54:24;;;;;;;13.10;5.10;;;;;;;4.70;100.00;98439.82;112861;1241;22134;-83
2023/11/24 05:59:58;;;;;;;15.30;4.90;;;;;;;4.61;100.00;98455.02;113056;1240;22881;-81
2023/11/24 06:02:42;;;;;;;10.80;3.80;;;;;;;4.58;100.00;98456.19;112915;1240;22759;-81
2023/11/24 06:05:39;;;;;;;;;;;;;;;;;;;;;
2023/11/24 06:08:48;;;;;;;9.90;4.20;;;;;;;4.52;100.00;98445.59;113003;1240;21975;-81
2023/11/24 06:11:37;;;;;;;10.60;3.80;;;;;;;4.48;100.00;98445.44;112693;1237;22732;-83
2023/11/24 06:14:24;;;;;;;14.60;3.80;;;;;;;4.45;100.00;98448.14;112511;1242;21973;-83
2023/11/24 06:17:09;;;;;;;11.80;3.70;;;;;;;4.41;100.00;98449.35;112461;1242;21959;-83
2023/11/24 06:20:12;;;;;;;13.90;5.80;;;;;;;4.38;100.00;98450.88;112947;1242;23795;-83
2023/11/24 06:23:15;;;;;;;15.70;5.20;;;;;;;4.35;100.00;98452.37;112368;1244;23681;-83
2023/11/24 06:26:16;;;;;;;15.50;5.10;;;;;;;4.35;100.00;98454.80;112466;1244;22047;-80
2023/11/24 06:29:27;;;;;;;10.60;4.70;;;;;;;4.32;100.00;98450.79;111876;1251;22012;-79
2023/11/24 06:32:30;;;;;;;12.30;4.80;;;;;;;4.30;100.00;98451.70;111776;1249;23691;-81
2023/11/24 06:35:23;;;;;;;24.70;5.60;;;;;;;4.30;100.00;98445.35;111922;1249;23728;-79
2023/11/24 06:38:15;;;;;;;19.30;5.20;;;;;;;4.35;100.00;98446.17;111833;1249;21967;-79
2023/11/24 06:40:56;;;;;;;23.40;11.40;;;;;;;4.41;100.00;98440.23;111667;1249;23041;-78
2023/11/24 06:43:34;;;;;;;20.00;8.50;;;;;;;4.44;100.00;98441.98;111706;1249;21989;-79
2023/11/24 06:46:27;;;;;;;31.50;21.80;;;;;;;4.50;100.00;98445.70;111928;1244;21950;-78
2023/11/24 06:49:05;;;;;;;10.80;5.10;;;;;;;4.57;100.00;98444.19;112622;1241;21989;-78
2023/11/24 06:51:50;;;;;;;16.30;6.10;;;;;;;4.54;100.00;98448.98;113596;1234;21971;-79
2023/11/24 06:54:33;;;;;;;23.10;10.30;;;;;;;4.52;100.00;98450.77;113690;1234;22272;-79
2023/11/24 06:57:28;;;;;;;16.30;7.30;;;;;;;4.50;100.00;98453.10;113336;1236;22331;-82
2023/11/24 07:00:26;;;;;;;13.60;4.80;;;;;;;4.44;100.00;98449.21;110334;1239;22008;-82
2023/11/24 07:03:23;;;;;;;12.60;4.90;;;;;;;4.40;100.00;98458.70;113101;1239;22351;-84
2023/11/24 07:06:31;;;;;;;14.20;5.60;;;;;;;4.28;100.00;98453.19;113168;1239;23128;-83
2023/11/24 07:09:10;;;;;;;99.10;68.50;;;;;;;4.36;100.00;98459.86;113253;1239;22965;-86
2023/11/24 07:11:47;;;;;;;41.50;29.00;;;;;;;4.46;100.00;98452.76;113134;1238;23584;-84
2023/11/24 07:14:23;;;;;;;35.20;17.30;;;;;;;4.54;100.00;98446.36;113280;1239;21970;-84
2023/11/24 07:17:06;;;;;;;42.60;29.10;;;;;;;4.60;100.00;98440.78;112301;1246;22008;-80
2023/11/24 07:19:40;;;;;;;26.80;14.70;;;;;;;4.66;100.00;98441.38;112265;1245;22075;-83
2023/11/24 07:22:45;;;;;;;15.30;7.80;;;;;;;4.71;100.00;98442.86;112597;1245;21942;-82
2023/11/24 07:25:22;;;;;;;33.70;15.10;;;;;;;4.74;100.00;98438.29;111840;1249;21974;-82
2023/11/24 07:28:09;;;;;;;14.00;7.30;;;;;;;4.76;100.00;98430.92;111956;1249;21970;-83
2023/11/24 07:30:50;;;;;;;17.80;10.80;;;;;;;4.76;100.00;98431.63;112019;1246;21986;-81
2023/11/24 07:33:21;;;;;;;11.80;6.20;;;;;;;4.77;100.00;98432.11;112275;1246;21955;-82
2023/11/24 07:35:59;;;;;;;16.10;7.90;;;;;;;4.80;100.00;98435.93;112205;1244;21959;-81
2023/11/24 07:38:31;;;;;;;11.90;5.60;;;;;;;4.88;100.00;98444.02;111922;1250;22810;-81
2023/11/24 07:41:07;;;;;;;12.50;5.70;;;;;;;4.96;100.00;98449.34;111968;1249;23597;-80
2023/11/24 07:43:48;;;;;;;16.90;7.50;;;;;;;5.00;100.00;98449.35;111578;1251;21978;-83
2023/11/24 07:46:30;;;;;;;;;;;;;;;5.03;100.00;98451.10;112085;1251;21952;-86
2023/11/24 07:49:14;;;;;;;12.70;5.50;;;;;;;4.96;100.00;98452.60;111855;1248;21966;-85
2023/11/24 07:51:51;;;;;;;14.90;5.60;;;;;;;4.93;100.00;98452.75;111294;1255;22473;-84
2023/11/24 07:54:44;;;;;;;16.20;5.40;;;;;;;4.94;100.00;98449.80;111698;1252;21980;-86
2023/11/24 07:57:34;;;;;;;15.50;4.50;;;;;;;4.93;100.00;98447.92;112291;1245;22069;-86
2023/11/24 08:08:15;;;;;;;11.10;4.60;;;;;;;4.86;100.00;98431.17;114441;1235;22320;-92
2023/11/24 08:11:15;;;;;;;14.90;5.60;;;;;;;4.89;100.00;98439.67;113144;1243;24284;-84
2023/11/24 08:14:17;;;;;;;12.30;4.90;;;;;;;4.92;100.00;98442.45;112722;1243;24303;-83
2023/11/24 08:16:57;;;;;;;12.50;4.50;;;;;;;4.91;100.00;98434.58;112657;1243;21946;-82
2023/11/24 08:20:15;;;;;;;6.70;4.00;;;;;;;4.91;100.00;98439.61;112708;1243;22023;-80
2023/11/24 08:23:41;;;;;;;15.80;4.60;;;;;;;4.94;100.00;98439.44;112388;1244;21972;-81
2023/11/24 08:30:16;;;;;;;11.30;5.10;;;;;;;5.08;100.00;98431.38;111410;1255;21997;-84
2023/11/24 08:33:24;;;;;;;9.90;4.70;;;;;;;5.14;100.00;98423.19;111491;1255;21982;-83
2023/11/24 08:36:09;;;;;;;9.80;4.60;;;;;;;5.16;100.00;98420.14;111185;1255;22287;-82
2023/11/24 08:39:27;;;;;;;;;;;;;;;;;;;;;
2023/11/24 08:42:40;;;;;;;10.10;4.50;;;;;;;5.17;100.00;98412.69;111565;1254;21975;-83
2023/11/24 08:45:24;;;;;;;10.40;4.80;;;;;;;5.19;100.00;98410.88;111461;1256;23109;-82
2023/11/24 08:48:53;;;;;;;9.10;3.80;;;;;;;5.19;100.00;98405.05;111503;1256;22674;-84
2023/11/24 08:52:32;;;;;;;10.20;3.40;;;;;;;5.24;100.00;98399.09;111132;1260;21998;-84
2023/11/24 08:55:30;;;;;;;12.50;4.20;;;;;;;5.32;100.00;98396.28;110858;1261;21967;-86
2023/11/24 08:58:30;;;;;;;9.70;4.90;;;;;;;5.44;100.00;98398.84;110924;1261;21999;-83
2023/11/24 09:01:23;;;;;;;7.20;3.90;;;;;;;5.55;100.00;98406.06;111153;1257;21991;-83
2023/11/24 09:04:14;;;;;;;12.50;4.20;;;;;;;5.70;100.00;98407.60;111888;1247;21936;-82
2023/11/24 09:06:57;;;;;;;6.80;3.80;;;;;;;5.83;100.00;98408.30;111890;1248;23604;-84
2023/11/24 09:09:28;;;;;;;11.00;5.00;;;;;;;5.94;100.00;98405.23;112488;1241;21987;-82
2023/11/24 09:12:24;;;;;;;9.70;4.50;;;;;;;6.01;100.00;98411.25;112771;1241;22419;-82
2023/11/24 09:15:12;;;;;;;8.70;3.50;;;;;;;6.07;100.00;98408.23;112623;1244;22743;-84
2023/11/24 09:17:55;;;;;;;8.30;4.20;;;;;;;6.12;100.00;98409.00;112651;1244;22969;-81
2023/11/24 09:20:39;;;;;;;11.20;4.80;;;;;;;6.18;100.00;98412.32;112648;1244;21976;-82
2023/11/24 09:23:17;;;;;;;7.90;4.60;;;;;;;6.26;100.00;98412.59;111942;1249;21981;-82
2023/11/24 09:25:57;;;;;;;9.60;4.40;;;;;;;6.35;100.00;98416.45;112073;1245;22407;-82
2023/11/24 09:28:40;;;;;;;9.80;4.30;;;;;;;6.28;100.00;98415.27;112253;1245;22957;-82
2023/11/24 09:31:37;;;;;;;9.40;4.60;;;;;;;6.07;100.00;98411.87;112351;1245;23040;-82
2023/11/24 09:34:17;;;;;;;12.90;5.40;;;;;;;5.76;100.00;98396.39;112705;1241;23701;-82
2023/11/24 09:37:01;;;;;;;12.60;6.00;;;;;;;5.64;100.00;98395.13;112690;1240;21947;-82
2023/11/24 09:39:40;;;;;;;11.20;6.10;;;;;;;5.56;100.00;98407.94;112821;1240;21964;-82
2023/11/24 09:42:44;;;;;;;12.30;5.40;;;;;;;5.38;100.00;98402.75;112787;1241;22932;-82
2023/11/24 09:45:26;;;;;;;10.30;4.80;;;;;;;5.22;100.00;98401.77;112664;1241;21971;-82
2023/11/24 09:48:12;;;;;;;11.30;5.90;;;;;;;5.05;100.00;98392.75;113317;1234;21934;-82
2023/11/24 09:50:49;;;;;;;11.90;5.10;;;;;;;4.92;100.00;98391.29;113468;1234;22004;-83
2023/11/24 09:53:33;;;;;;;11.60;4.40;;;;;;;4.79;100.00;98392.04;113466;1234;21959;-83
2023/11/24 09:56:05;;;;;;;8.70;3.90;;;;;;;4.71;100.00;98389.80;112887;1241;21962;-84
2023/11/24 09:59:39;;;;;;;8.50;4.00;;;;;;;4.79;100.00;98386.66;112245;1247;23689;-81
2023/11/24 10:02:35;;;;;;;8.30;4.70;;;;;;;5.00;100.00;98385.55;111983;1247;21995;-81
2023/11/24 10:05:19;;;;;;;6.30;3.70;;;;;;;5.23;100.00;98387.41;112318;1241;22249;-84
2023/11/24 10:08:22;;;;;;;12.80;4.50;;;;;;;5.45;100.00;98385.68;111982;1247;21923;-84
2023/11/24 10:11:33;;;;;;;12.30;4.50;;;;;;;5.59;100.00;98383.09;111670;1245;23044;-81
2023/11/24 10:14:15;;;;;;;12.00;4.40;;;;;;;5.67;100.00;98380.77;111812;1248;22055;-82
2023/11/24 10:17:08;;;;;;;;;;;;;;;;;;;;;
2023/11/24 10:20:18;;;;;;;12.40;5.70;;;;;;;6.03;100.00;98369.23;112251;1242;23610;-82
2023/11/24 10:23:30;;;;;;;13.60;6.10;;;;;;;6.22;100.00;98361.16;112606;1242;23127;-79
2023/11/24 10:26:40;;;;;;;12.00;6.50;;;;;;;6.51;100.00;98353.11;112641;1242;21988;-80
2023/11/24 10:29:55;;;;;;;9.30;4.70;;;;;;;6.72;100.00;98347.45;112953;1234;23028;-82
2023/11/24 10:32:52;;;;;;;8.40;4.90;;;;;;;6.80;100.00;98348.56;112560;1242;23688;-83
2023/11/24 10:35:32;;;;;;;8.20;4.00;;;;;;;6.82;100.00;98348.50;112302;1244;21972;-84
2023/11/24 10:38:09;;;;;;;8.90;4.40;;;;;;;6.67;100.00;98349.97;112465;1244;23846;-82
2023/11/24 10:41:21;;;;;;;;;;;;;;;;;;;;;
2023/11/24 10:44:33;;;;;;;9.60;3.90;;;;;;;6.25;100.00;98355.16;112251;1242;23024;-80
2023/11/24 10:47:09;;;;;;;11.20;4.00;;;;;;;6.12;100.00;98350.81;112293;1244;22217;-81
2023/11/24 10:50:17;;;;;;;11.10;5.30;;;;;;;6.05;100.00;98344.95;111834;1248;22852;-80
2023/11/24 10:53:49;;;;;;;;;;;;;;;;;;;;;
2023/11/24 10:56:33;;;;;;;10.30;5.20;;;;;;;6.19;100.00;98337.98;111224;1257;21989;-79
2023/11/24 10:59:22;;;;;;;7.40;3.80;;;;;;;6.62;100.00;98332.08;111141;1257;22150;-81
2023/11/24 11:02:37;;;;;;;11.80;4.10;;;;;;;6.84;100.00;98325.41;111022;1255;22004;-80
2023/11/24 11:06:17;;;;;;;9.60;3.90;;;;;;;6.69;100.00;98329.84;111360;1255;24494;-81
2023/11/24 11:12:13;;;;;;;8.60;3.60;;;;;;;5.82;100.00;98363.52;111091;1257;21987;-79
2023/11/24 11:15:18;;;;;;;7.50;3.70;;;;;;;5.29;100.00;98366.93;111178;1260;21967;-80
2023/11/24 11:18:33;;;;;;;10.10;4.80;;;;;;;4.95;100.00;98354.95;112069;1260;21988;-80
2023/11/24 11:21:55;;;;;;;6.70;4.50;;;;;;;4.73;100.00;98359.53;110961;1263;22046;-81
2023/11/24 11:24:45;;;;;;;7.30;5.40;;;;;;;4.57;100.00;98354.59;110873;1263;21717;-78
2023/11/24 11:27:33;;;;;;;12.40;6.50;;;;;;;4.53;100.00;98346.18;110788;1264;22013;-81
2023/11/24 11:30:31;;;;;;;10.60;6.90;;;;;;;4.51;100.00;98338.32;110888;1258;22227;-81
2023/11/24 11:33:30;;;;;;;16.40;7.60;;;;;;;4.56;100.00;98335.88;111559;1252;21980;-82
2023/11/24 11:36:15;;;;;;;14.00;5.80;;;;;;;4.64;100.00;98336.53;111474;1254;21963;-81
2023/11/24 11:38:55;;;;;;;12.00;6.00;;;;;;;4.75;100.00;98334.30;111255;1256;21986;-79
2023/11/24 11:41:51;;;;;;;11.90;6.20;;;;;;;4.88;100.00;98337.68;111493;1248;22681;-80
2023/11/24 11:44:46;;;;;;;10.50;4.90;;;;;;;5.00;100.00;98336.78;111969;1249;23731;-80
2023/11/24 11:47:58;;;;;;;11.80;5.30;;;;;;;5.12;100.00;98332.41;112044;1247;21978;-79
2023/11/24 11:51:34;;;;;;;10.60;5.00;;;;;;;5.21;100.00;98329.39;111934;1249;21962;-78
2023/11/24 11:55:14;;;;;;;8.50;4.30;;;;;;;5.18;100.00;98310.39;112450;1243;23011;-79
2023/11/24 11:59:17;;;;;;;;;;;;;;;;;;;;;
2023/11/24 12:02:56;;;;;;;12.20;4.80;;;;;;;5.24;100.00;98326.69;112957;1241;22711;-80
2023/11/24 12:05:39;;;;;;;12.50;4.50;;;;;;;5.25;100.00;98327.45;113040;1241;23675;-81
2023/11/24 12:08:22;;;;;;;11.10;5.20;;;;;;;5.24;100.00;98318.20;112989;1241;23820;-80
2023/11/24 12:11:30;;;;;;;11.20;4.20;;;;;;;5.19;100.00;98319.16;113099;1239;22694;-83
2023/11/24 12:15:15;;;;;;;;;;;;;;;;;;;;;
2023/11/24 12:18:22;;;;;;;9.50;3.10;;;;;;;5.09;100.00;98332.73;111878;1251;22213;-80
2023/11/24 12:20:59;;;;;;;8.50;3.60;;;;;;;4.93;100.00;98332.77;111853;1251;22896;-78
2023/11/24 12:23:40;;;;;;;10.30;5.10;;;;;;;4.73;100.00;98330.60;111860;1251;21977;-79
2023/11/24 12:26:15;;;;;;;10.70;4.80;;;;;;;4.59;100.00;98319.69;111683;1251;21915;-80
2023/11/24 12:29:15;;;;;;;8.40;5.00;;;;;;;4.53;100.00;98318.10;111573;1251;21960;-80
2023/11/24 12:31:50;;;;;;;10.10;6.70;;;;;;;4.50;100.00;98311.51;111704;1250;21970;-81
2023/11/24 12:34:51;;;;;;;13.30;6.90;;;;;;;4.51;100.00;98309.71;111751;1249;23688;-81
2023/11/24 12:38:16;;;;;;;9.10;5.50;;;;;;;4.45;100.00;98314.84;112437;1246;22861;-81
2023/11/24 12:41:16;;;;;;;15.60;5.40;;;;;;;4.40;100.00;98317.81;111801;1250;21992;-81
2023/11/24 12:44:01;;;;;;;12.60;5.20;;;;;;;4.36;100.00;98319.55;111750;1250;21962;-79
2023/11/24 12:46:54;;;;;;;;;;;;;;;;;;;;;
2023/11/24 12:50:29;;;;;;;;;;;;;;;;;;;;;
2023/11/24 14:23:13;;;;;;;14.20;7.10;;;;;;;3.63;100.00;98253.71;113964;1233;23767;-81
2023/11/24 14:25:41;;;;;;;13.20;5.90;;;;;;;3.65;100.00;98251.39;113557;1233;21956;-80
2023/11/24 14:28:09;;;;;;;13.20;6.00;;;;;;;3.68;100.00;98249.18;113685;1233;21992;-81
2023/11/24 14:30:38;;;;;;;13.90;6.50;;;;;;;3.71;100.00;98250.64;113703;1233;21951;-81
2023/11/24 14:33:06;;;;;;;16.20;7.70;;;;;;;3.69;100.00;98248.11;113026;1239;23037;-83
2023/11/24 14:35:37;;;;;;;16.80;7.20;;;;;;;3.69;100.00;98249.34;112695;1239;21955;-79
2023/11/24 14:38:05;;;;;;;16.90;7.70;;;;;;;3.68;100.00;98252.63;113021;1239;22065;-84
2023/11/24 14:40:36;;;;;;;13.20;7.40;;;;;;;3.68;100.00;98252.11;113014;1239;21989;-81
2023/11/24 14:43:05;;;;;;;18.60;8.50;;;;;;;3.69;100.00;98248.64;112803;1239;21950;-82
2023/11/24 14:45:33;;;;;;;14.50;7.20;;;;;;;3.66;100.00;98246.34;112876;1239;22722;-77
2023/11/24 14:48:01;;;;;;;18.70;9.80;;;;;;;3.66;100.00;98245.67;112923;1239;22425;-79
2023/11/24 14:50:45;;;;;;;18.20;9.00;;;;;;;3.66;100.00;98249.45;113357;1233;21913;-80
2023/11/24 14:53:49;;;;;;;15.80;8.40;;;;;;;3.65;100.00;98253.46;113685;1233;21965;-82
2023/11/24 14:56:35;;;;;;;16.30;8.20;;;;;;;3.62;100.00;98253.27;113502;1233;21953;-80
2023/11/24 14:59:53;;;;;;;;;;;;;;;;;;;;;
2023/11/24 15:02:39;;;;;;;35.30;15.30;;;;;;;3.60;100.00;98253.00;113544;1233;23029;-80
2023/11/24 15:05:15;;;;;;;20.40;9.80;;;;;;;3.63;100.00;98252.35;113162;1236;21969;-79
2023/11/24 15:08:09;;;;;;;21.70;10.60;;;;;;;3.66;100.00;98247.75;113342;1236;22012;-83
2023/11/24 15:10:49;;;;;;;17.90;10.70;;;;;;;3.70;100.00;98249.65;112858;1236;23596;-81
2023/11/24 15:13:26;;;;;;;32.30;18.20;;;;;;;3.75;100.00;98247.02;113329;1236;24385;-81
2023/11/24 15:16:18;;;;;;;42.30;23.90;;;;;;;3.79;100.00;98243.39;113275;1236;23697;-81
2023/11/24 15:19:00;;;;;;;38.20;20.80;;;;;;;3.79;100.00;98239.27;112620;1241;22061;-81
2023/11/24 15:21:42;;;;;;;37.70;23.90;;;;;;;3.75;100.00;98239.78;112752;1241;22415;-78
2023/11/24 15:24:19;;;;;;;43.80;26.80;;;;;;;3.75;100.00;98240.48;112733;1240;22804;-78
2023/11/24 15:27:08;;;;;;;;;;;;;;;;;;;;;